createdAt,value
2018-12-05T00:00:31.125Z,2.20
2018-12-05T00:05:24.818Z,2.10
2018-12-05T00:10:17.983Z,2.00
2018-12-05T00:15:11.874Z,1.90
2018-12-05T00:20:06.489Z,1.80
2018-12-05T00:24:59.940Z,1.70
2018-12-05T00:29:52.990Z,1.60
2018-12-05T00:34:47.123Z,1.60
2018-12-05T00:39:41.476Z,1.60
2018-12-05T00:44:36.644Z,1.50
2018-12-05T00:49:29.648Z,1.50
2018-12-05T00:54:22.887Z,1.50
2018-12-05T00:59:17.939Z,1.50
2018-12-05T01:04:11.692Z,1.50
2018-12-05T01:09:11.317Z,1.50
2018-12-05T01:14:05.387Z,1.50
2018-12-05T01:18:58.584Z,1.40
2018-12-05T01:23:51.666Z,1.30
2018-12-05T01:28:45.769Z,1.30
2018-12-05T01:33:38.821Z,1.30
2018-12-05T01:38:32.512Z,1.20
2018-12-05T01:43:27.552Z,1.20
2018-12-05T01:48:20.920Z,1.10
2018-12-05T01:53:13.867Z,1.10
2018-12-05T01:58:07.757Z,1.00
2018-12-05T02:03:00.771Z,1.00
2018-12-05T02:07:53.698Z,1.00
2018-12-05T02:12:47.659Z,1.00
2018-12-05T02:17:40.859Z,0.90
2018-12-05T02:22:34.428Z,0.90
2018-12-05T02:27:28.099Z,0.90
2018-12-05T02:32:21.202Z,0.80
2018-12-05T02:37:15.004Z,0.80
2018-12-05T02:42:07.987Z,0.80
2018-12-05T02:47:01.489Z,0.80
2018-12-05T02:51:54.739Z,0.70
2018-12-05T02:56:47.983Z,0.70
2018-12-05T03:01:41.462Z,0.70
2018-12-05T03:06:34.532Z,0.70
2018-12-05T03:11:28.432Z,0.60
2018-12-05T03:16:21.841Z,0.50
2018-12-05T03:21:15.178Z,0.50
2018-12-05T03:26:08.660Z,0.50
2018-12-05T03:31:03.453Z,0.40
2018-12-05T03:35:57.838Z,0.40
2018-12-05T03:40:50.839Z,0.40
2018-12-05T03:45:43.914Z,0.30
2018-12-05T03:50:37.493Z,0.30
2018-12-05T03:55:31.728Z,0.30
2018-12-05T04:00:24.712Z,0.30
2018-12-05T04:05:18.345Z,0.20
2018-12-05T04:10:13.981Z,0.20
2018-12-05T04:15:08.482Z,0.20
2018-12-05T04:20:01.426Z,0.20
2018-12-05T04:24:55.118Z,0.30
2018-12-05T04:29:48.099Z,0.30
2018-12-05T04:34:55.307Z,0.20
2018-12-05T04:39:56.127Z,0.00
2018-12-05T04:44:49.673Z,0.00
2018-12-05T04:49:42.604Z,0.00
2018-12-05T04:54:35.812Z,-0.10
2018-12-05T04:59:29.767Z,-0.20
2018-12-05T05:04:23.874Z,-0.10
2018-12-05T05:09:17.242Z,-0.20
2018-12-05T05:14:11.745Z,-0.30
2018-12-05T05:19:05.355Z,-0.30
2018-12-05T05:23:58.348Z,-0.30
2018-12-05T05:28:51.676Z,-0.30
2018-12-05T05:33:44.744Z,-0.40
2018-12-05T05:38:37.925Z,-0.40
2018-12-05T05:43:30.885Z,-0.40
2018-12-05T05:48:23.955Z,-0.40
2018-12-05T05:53:17.231Z,-0.40
2018-12-05T05:58:11.452Z,-0.40
2018-12-05T06:03:06.675Z,-0.50
2018-12-05T06:08:00.028Z,-0.50
2018-12-05T06:12:55.205Z,-0.50
2018-12-05T06:17:49.406Z,-0.50
2018-12-05T06:22:44.569Z,-0.50
2018-12-05T06:27:39.094Z,-0.50
2018-12-05T06:32:33.986Z,-0.50
2018-12-05T06:37:27.643Z,-0.60
2018-12-05T06:42:20.636Z,-0.50
2018-12-05T06:47:14.140Z,-0.50
2018-12-05T06:52:07.297Z,-0.40
2018-12-05T06:57:01.432Z,-0.30
2018-12-05T07:01:54.888Z,-0.30
2018-12-05T07:06:48.775Z,-0.20
2018-12-05T07:11:42.336Z,-0.10
2018-12-05T07:16:35.717Z,0.20
2018-12-05T07:21:28.681Z,0.30
2018-12-05T07:26:21.997Z,1.00
2018-12-05T07:31:15.078Z,1.80
2018-12-05T07:36:08.576Z,3.50
2018-12-05T07:41:01.476Z,4.80
2018-12-05T07:45:56.221Z,6.00
2018-12-05T07:50:49.256Z,6.70
2018-12-05T07:55:47.357Z,7.00
2018-12-05T08:00:44.340Z,7.40
2018-12-05T08:05:38.606Z,7.80
2018-12-05T08:10:35.046Z,7.60
2018-12-05T08:15:29.290Z,6.60
2018-12-05T08:20:24.609Z,7.00
2018-12-05T08:25:19.226Z,7.50
2018-12-05T08:30:12.357Z,9.20
2018-12-05T08:35:05.906Z,10.30
2018-12-05T08:39:58.803Z,11.90
2018-12-05T08:44:51.872Z,13.20
2018-12-05T08:49:46.530Z,14.60
2018-12-05T08:54:39.933Z,15.70
2018-12-05T08:59:33.131Z,16.20
2018-12-05T09:04:26.308Z,16.70
2018-12-05T09:09:26.226Z,16.40
2018-12-05T09:14:28.580Z,16.70
2018-12-05T09:19:18.999Z,17.60
2018-12-05T09:24:19.080Z,17.70
2018-12-05T09:29:14.952Z,18.20
2018-12-05T09:34:10.304Z,16.20
2018-12-05T09:39:07.701Z,16.80
2018-12-05T09:44:03.970Z,18.40
2018-12-05T09:48:58.344Z,20.80
2018-12-05T09:53:52.317Z,22.30
2018-12-05T09:58:47.330Z,22.90
2018-12-05T10:03:43.809Z,22.40
2018-12-05T10:08:38.720Z,23.20
2018-12-05T10:13:31.804Z,23.30
2018-12-05T10:18:24.655Z,23.30
2018-12-05T10:23:17.935Z,22.80
2018-12-05T10:28:11.218Z,23.40
2018-12-05T10:33:05.147Z,23.70
2018-12-05T10:37:59.535Z,24.40
2018-12-05T10:42:53.931Z,24.70
2018-12-05T10:47:50.357Z,24.20
2018-12-05T10:52:45.975Z,23.50
2018-12-05T10:57:40.009Z,23.40
2018-12-05T11:02:43.186Z,24.40
2018-12-05T11:07:45.375Z,25.30
2018-12-05T11:12:43.476Z,25.40
2018-12-05T11:17:45.978Z,24.90
2018-12-05T11:22:48.742Z,25.70
2018-12-05T11:27:43.750Z,25.70
2018-12-05T11:32:37.688Z,24.60
2018-12-05T11:37:32.038Z,22.00
2018-12-05T11:42:25.949Z,19.70
2018-12-05T11:47:21.208Z,17.70
2018-12-05T11:52:16.081Z,16.00
2018-12-05T11:57:10.481Z,14.30
2018-12-05T12:02:03.856Z,13.00
2018-12-05T12:06:57.186Z,12.10
2018-12-05T12:11:51.432Z,11.30
2018-12-05T12:16:50.849Z,10.50
2018-12-05T12:21:44.895Z,10.10
2018-12-05T12:26:38.683Z,9.70
2018-12-05T12:31:34.054Z,9.50
2018-12-05T12:36:27.319Z,9.30
2018-12-05T12:41:21.231Z,9.10
2018-12-05T12:46:14.295Z,9.00
2018-12-05T12:51:07.569Z,9.00
2018-12-05T12:56:00.330Z,8.80
2018-12-05T13:00:54.857Z,8.80
2018-12-05T13:05:47.697Z,8.70
2018-12-05T13:10:41.940Z,8.50
2018-12-05T13:15:35.375Z,8.50
2018-12-05T13:20:28.817Z,8.40
2018-12-05T13:25:21.824Z,8.30
2018-12-05T13:30:15.482Z,8.20
2018-12-05T13:35:08.478Z,8.10
2018-12-05T13:40:02.624Z,8.10
2018-12-05T13:44:56.550Z,7.90
2018-12-05T13:49:51.293Z,7.80
2018-12-05T13:54:45.897Z,7.70
2018-12-05T13:59:38.950Z,7.70
2018-12-05T14:04:32.541Z,7.60
2018-12-05T14:09:26.375Z,7.60
2018-12-05T14:14:20.101Z,7.50
2018-12-05T14:19:13.590Z,7.30
2018-12-05T14:24:07.431Z,7.20
2018-12-05T14:29:02.705Z,7.00
2018-12-05T14:33:55.773Z,6.90
2018-12-05T14:38:48.876Z,6.80
2018-12-05T14:43:42.322Z,6.70
2018-12-05T14:48:36.520Z,6.60
2018-12-05T14:53:30.744Z,6.50
2018-12-05T14:58:24.808Z,6.30
2018-12-05T15:03:18.530Z,6.10
2018-12-05T15:08:13.893Z,6.00
2018-12-05T15:13:07.077Z,5.80
2018-12-05T15:18:04.481Z,5.70
2018-12-05T15:22:58.252Z,5.50
2018-12-05T15:27:51.483Z,5.40
2018-12-05T15:32:45.348Z,5.30
2018-12-05T15:37:38.448Z,5.20
2018-12-05T15:42:33.696Z,5.10
2018-12-05T15:47:29.084Z,5.00
2018-12-05T15:52:23.167Z,4.80
2018-12-05T15:57:16.501Z,4.60
2018-12-05T16:02:09.676Z,4.60
2018-12-05T16:07:03.531Z,4.50
2018-12-05T16:11:56.925Z,4.40
2018-12-05T16:16:51.980Z,4.40
2018-12-05T16:21:44.825Z,4.40
2018-12-05T16:26:37.727Z,4.40
2018-12-05T16:31:33.086Z,4.20
2018-12-05T16:36:26.186Z,4.30
2018-12-05T16:41:19.057Z,4.30
2018-12-05T16:51:03.521Z,4.10
2018-12-05T16:55:56.318Z,4.00
2018-12-05T17:00:49.606Z,3.90
2018-12-05T17:05:42.869Z,3.70
2018-12-05T17:10:36.343Z,3.50
2018-12-05T17:15:31.261Z,3.40
2018-12-05T17:20:26.486Z,3.40
2018-12-05T17:25:20.680Z,3.30
2018-12-05T17:30:13.753Z,3.10
2018-12-05T17:35:07.642Z,2.80
2018-12-05T17:40:00.776Z,2.60
2018-12-05T17:44:54.710Z,2.50
2018-12-05T17:49:48.083Z,2.40
2018-12-05T17:54:42.774Z,2.40
2018-12-05T17:59:36.077Z,2.50
2018-12-05T18:04:29.156Z,2.60
2018-12-05T18:09:23.026Z,2.50
2018-12-05T18:14:16.413Z,2.60
2018-12-05T18:19:10.287Z,2.70
2018-12-05T18:24:03.713Z,2.80
2018-12-05T18:28:56.936Z,2.80
2018-12-05T18:33:51.150Z,2.80
2018-12-05T18:38:45.545Z,3.00
2018-12-05T18:43:40.415Z,3.00
2018-12-05T18:48:34.404Z,2.90
2018-12-05T18:53:28.479Z,2.90
2018-12-05T18:58:22.314Z,2.90
2018-12-05T19:03:16.327Z,3.00
2018-12-05T19:08:09.199Z,3.00
2018-12-05T19:13:02.164Z,2.90
2018-12-05T19:17:56.219Z,3.00
2018-12-05T19:22:49.325Z,3.10
2018-12-05T19:27:43.760Z,3.20
2018-12-05T19:32:36.999Z,3.20
2018-12-05T19:37:31.597Z,3.40
2018-12-05T19:42:26.101Z,3.40
2018-12-05T19:47:19.083Z,3.50
2018-12-05T19:52:12.164Z,3.50
2018-12-05T19:57:06.841Z,3.60
2018-12-05T20:02:03.907Z,3.60
2018-12-05T20:06:57.100Z,3.60
2018-12-05T20:11:50.674Z,3.60
2018-12-05T20:16:46.123Z,3.70
2018-12-05T20:21:40.038Z,3.70
2018-12-05T20:26:35.475Z,3.70
2018-12-05T20:31:29.664Z,3.70
2018-12-05T20:36:23.149Z,3.70
2018-12-05T20:41:18.135Z,3.70
2018-12-05T20:46:11.789Z,3.80
2018-12-05T20:51:06.097Z,3.80
2018-12-05T20:56:02.150Z,3.80
2018-12-05T21:00:55.496Z,3.80
2018-12-05T21:05:49.138Z,3.90
2018-12-05T21:10:43.007Z,3.90
2018-12-05T21:15:38.161Z,4.00
2018-12-05T21:20:31.488Z,4.00
2018-12-05T21:25:25.730Z,4.00
2018-12-05T21:30:18.862Z,4.00
2018-12-05T21:35:21.741Z,4.10
2018-12-05T21:40:15.243Z,4.10
2018-12-05T21:45:08.213Z,4.10
2018-12-05T21:50:01.717Z,4.10
2018-12-05T21:54:54.755Z,4.10
2018-12-05T21:59:48.073Z,4.10
2018-12-05T22:04:41.215Z,4.10
2018-12-05T22:09:34.683Z,4.20
2018-12-05T22:14:27.780Z,4.20
2018-12-05T22:19:28.810Z,4.20
2018-12-05T22:24:22.729Z,4.20
2018-12-05T22:29:15.816Z,4.20
2018-12-05T22:34:10.279Z,4.20
2018-12-05T22:39:04.603Z,4.20
2018-12-05T22:43:58.573Z,4.20
2018-12-05T22:48:51.846Z,4.20
2018-12-05T22:53:45.178Z,4.20
2018-12-05T22:58:39.928Z,4.30
2018-12-05T23:03:33.360Z,4.30
2018-12-05T23:08:26.482Z,4.30
2018-12-05T23:13:20.166Z,4.30
2018-12-05T23:18:13.747Z,4.40
2018-12-05T23:23:08.322Z,4.30
2018-12-05T23:28:01.542Z,4.40
2018-12-05T23:32:54.650Z,4.40
2018-12-05T23:37:48.384Z,4.50
2018-12-05T23:42:42.519Z,4.50
2018-12-05T23:47:35.454Z,4.60
2018-12-05T23:52:28.722Z,4.60
2018-12-05T23:57:22.308Z,4.70
